Time;durP1;ratioP1;P1;durP2;ratioP2;P2;SDS_P1;SDS_P2;PMS_P1;PMS_P2;Temp;Humidity;BMP_temperature;BMP_pressure;BME280_temperature;BME280_humidity;BME280_pressure;Samples;Min_cycle;Max_cycle;Signal;HPM_P1;HPM_P2
2022/07/02 00:01:08;;;;;;;7.50;5.13;;;14.10;83.00;;;;;;5077484;28;20425;-77
2022/07/02 00:03:36;;;;;;;13.38;4.68;;;14.20;82.70;;;;;;5075758;28;20384;-79
2022/07/02 00:06:04;;;;;;;8.93;5.30;;;14.20;82.70;;;;;;5077944;28;20399;-77
2022/07/02 00:08:30;;;;;;;10.48;5.00;;;14.10;82.60;;;;;;5080237;28;20375;-78
2022/07/02 00:10:57;;;;;;;11.35;5.70;;;14.20;81.80;;;;;;5075381;28;20375;-78
2022/07/02 00:13:25;;;;;;;6.97;5.40;;;14.40;79.50;;;;;;5075653;28;20557;-78
2022/07/02 00:15:51;;;;;;;7.93;5.35;;;14.30;79.00;;;;;;5084677;28;20380;-78
2022/07/02 00:18:18;;;;;;;8.60;5.85;;;14.20;80.50;;;;;;5081123;28;20398;-77
2022/07/02 00:20:44;;;;;;;12.47;6.77;;;14.10;82.20;;;;;;5089349;28;20402;-77
2022/07/02 00:23:11;;;;;;;12.50;6.60;;;14.00;83.30;;;;;;5090966;28;20456;-78
2022/07/02 00:25:42;;;;;;;7.75;5.43;;;14.00;84.40;;;;;;5088737;28;20390;-79
2022/07/02 00:28:14;;;;;;;9.50;5.47;;;13.90;85.00;;;;;;5092653;28;20364;-78
2022/07/02 00:30:46;;;;;;;7.90;5.50;;;13.80;85.40;;;;;;5076156;28;20494;-78
2022/07/02 00:33:14;;;;;;;9.30;5.40;;;13.90;84.20;;;;;;5066134;28;20441;-79
2022/07/02 00:35:40;;;;;;;10.00;5.60;;;13.90;84.90;;;;;;5078931;28;20394;-79
2022/07/02 00:38:07;;;;;;;9.25;5.22;;;13.80;86.10;;;;;;5078712;28;20391;-77
2022/07/02 00:40:33;;;;;;;8.77;5.60;;;13.80;87.00;;;;;;5085402;28;20872;-77
2022/07/02 00:42:59;;;;;;;9.43;5.20;;;13.80;86.90;;;;;;5083211;28;20398;-77
2022/07/02 00:45:26;;;;;;;6.13;4.97;;;14.00;86.90;;;;;;5081233;28;20411;-77
2022/07/02 00:47:54;;;;;;;9.82;4.80;;;14.20;82.40;;;;;;5075821;28;20387;-77
2022/07/02 00:50:21;;;;;;;9.07;5.40;;;14.20;80.80;;;;;;5076063;28;20391;-78
2022/07/02 00:52:46;;;;;;;9.25;5.25;;;14.00;83.30;;;;;;5078151;28;20383;-78
2022/07/02 00:55:13;;;;;;;9.60;5.50;;;14.00;84.60;;;;;;5079335;28;20424;-78
2022/07/02 00:57:39;;;;;;;7.20;5.20;;;13.80;85.80;;;;;;5079212;28;20398;-77
2022/07/02 01:00:06;;;;;;;8.97;5.20;;;13.90;86.10;;;;;;5083081;28;20388;-77
2022/07/02 01:02:35;;;;;;;10.80;5.87;;;13.80;86.70;;;;;;5065606;28;20481;-77
2022/07/02 01:05:00;;;;;;;7.88;5.03;;;13.90;86.10;;;;;;5089554;28;20904;-78
2022/07/02 01:07:28;;;;;;;8.70;5.70;;;13.90;85.90;;;;;;5079436;28;20390;-79
2022/07/02 01:12:46;;;;;;;8.70;6.28;;;13.70;88.60;;;;;;5078572;28;20387;-77
2022/07/02 01:15:13;;;;;;;12.80;7.22;;;13.60;89.90;;;;;;5075612;28;20376;-76
2022/07/02 01:17:38;;;;;;;11.10;6.30;;;13.50;91.30;;;;;;5058883;28;20416;-78
2022/07/02 01:20:05;;;;;;;8.17;6.03;;;13.50;92.30;;;;;;5059182;28;20394;-78
2022/07/02 01:22:38;;;;;;;7.88;5.05;;;13.40;93.40;;;;;;5077469;28;20399;-76
2022/07/02 01:25:06;;;;;;;12.27;7.00;;;13.40;93.00;;;;;;5060797;28;20435;-78
2022/07/02 01:27:32;;;;;;;10.35;6.50;;;13.40;94.10;;;;;;5078300;28;20376;-77
2022/07/02 01:29:57;;;;;;;9.70;5.90;;;13.30;95.10;;;;;;5083143;28;20384;-78
2022/07/02 01:32:23;;;;;;;11.40;8.20;;;13.30;95.50;;;;;;5084872;28;20380;-78
2022/07/02 01:35:00;;;;;;;9.83;6.17;;;13.30;96.50;;;;;;5070335;28;20946;-78
2022/07/02 01:37:25;;;;;;;11.20;6.30;;;13.30;96.60;;;;;;5082217;28;20441;-78
2022/07/02 01:39:51;;;;;;;11.70;6.40;;;13.30;95.60;;;;;;5081420;28;20391;-78
2022/07/02 01:42:17;;;;;;;10.97;5.53;;;13.40;94.70;;;;;;5080349;28;20432;-78
2022/07/02 01:44:44;;;;;;;8.65;6.07;;;13.40;92.70;;;;;;5061280;28;20469;-78
2022/07/02 01:47:11;;;;;;;10.43;6.35;;;13.50;91.10;;;;;;5078149;28;20388;-78
2022/07/02 01:49:38;;;;;;;9.27;6.25;;;13.50;89.30;;;;;;5077363;28;20375;-79
2022/07/02 01:52:05;;;;;;;9.70;5.50;;;13.60;88.60;;;;;;5079526;28;20416;-77
2022/07/02 01:54:31;;;;;;;10.20;6.07;;;13.60;88.50;;;;;;5077915;28;20399;-77
2022/07/02 01:56:58;;;;;;;11.52;6.05;;;13.70;86.90;;;;;;5058871;28;20388;-78
2022/07/02 01:59:24;;;;;;;12.65;6.45;;;13.70;84.60;;;;;;5075726;28;20379;-77
2022/07/02 02:01:50;;;;;;;11.80;5.57;;;13.60;84.70;;;;;;5077911;28;20517;-78
2022/07/02 02:04:15;;;;;;;9.87;5.93;;;13.60;84.60;;;;;;5078553;28;20390;-78
2022/07/02 02:06:42;;;;;;;7.60;5.75;;;13.50;84.80;;;;;;5081139;28;20947;-78
2022/07/02 02:09:08;;;;;;;10.02;5.80;;;13.50;84.30;;;;;;5080999;28;20384;-79
2022/07/02 02:11:33;;;;;;;8.18;5.43;;;13.50;85.30;;;;;;5061889;28;20815;-77
2022/07/02 02:13:59;;;;;;;9.75;5.78;;;13.40;86.00;;;;;;5076760;28;20381;-78
2022/07/02 02:16:31;;;;;;;8.70;5.97;;;13.40;85.80;;;;;;5077676;28;20478;-78
2022/07/02 02:18:58;;;;;;;13.93;6.93;;;13.50;85.20;;;;;;5076832;28;20402;-77
2022/07/02 02:21:25;;;;;;;12.20;6.13;;;13.40;85.90;;;;;;5077467;28;20380;-77
2022/07/02 02:23:51;;;;;;;9.53;6.10;;;13.40;85.60;;;;;;5079659;28;20384;-78
2022/07/02 02:26:17;;;;;;;10.25;5.78;;;13.40;85.50;;;;;;5061185;28;20395;-79
2022/07/02 02:28:42;;;;;;;8.85;6.30;;;13.40;85.50;;;;;;5063152;28;20391;-77
2022/07/02 02:31:08;;;;;;;11.63;6.13;;;13.30;86.00;;;;;;5087622;28;20392;-78
2022/07/02 02:33:34;;;;;;;9.97;5.80;;;13.30;86.10;;;;;;5080264;28;20425;-79
2022/07/02 02:35:59;;;;;;;10.53;6.50;;;13.30;86.80;;;;;;5079176;28;20395;-78
2022/07/02 02:38:25;;;;;;;9.55;5.68;;;13.30;86.30;;;;;;5076761;28;20415;-78
2022/07/02 02:40:51;;;;;;;16.20;6.50;;;13.30;86.30;;;;;;5075594;28;20429;-78
2022/07/02 02:43:16;;;;;;;11.65;6.57;;;13.20;86.40;;;;;;5075169;28;20877;-77
2022/07/02 02:45:42;;;;;;;15.20;6.40;;;13.20;86.10;;;;;;5072571;28;20410;-79
2022/07/02 02:48:08;;;;;;;11.25;6.60;;;13.20;85.90;;;;;;5083999;28;20440;-77
2022/07/02 02:50:33;;;;;;;9.45;5.80;;;13.20;86.20;;;;;;5080926;28;20439;-77
2022/07/02 02:52:59;;;;;;;10.30;5.88;;;13.20;85.90;;;;;;5072268;28;20463;-77
2022/07/02 02:55:24;;;;;;;8.90;5.97;;;13.20;86.30;;;;;;5072443;28;20396;-77
2022/07/02 02:57:50;;;;;;;10.03;6.67;;;13.20;85.20;;;;;;5074086;28;20480;-78
2022/07/02 03:00:16;;;;;;;11.00;5.70;;;13.20;85.80;;;;;;5074942;28;20391;-78
2022/07/02 03:02:41;;;;;;;7.25;5.90;;;13.20;84.20;;;;;;5074868;28;20394;-77
2022/07/02 03:05:07;;;;;;;9.68;6.47;;;13.30;83.40;;;;;;5076514;28;20391;-77
2022/07/02 03:07:33;;;;;;;11.63;6.60;;;13.30;82.40;;;;;;5073497;28;20437;-78
2022/07/02 03:09:58;;;;;;;8.35;5.35;;;13.20;83.60;;;;;;5072728;28;20387;-78
2022/07/02 03:12:25;;;;;;;13.43;6.10;;;13.20;84.80;;;;;;5071161;28;20387;-77
2022/07/02 03:14:50;;;;;;;6.95;5.25;;;13.20;84.80;;;;;;5072515;28;20387;-77
2022/07/02 03:17:16;;;;;;;9.37;6.40;;;13.20;85.80;;;;;;5073989;28;20894;-77
2022/07/02 03:19:42;;;;;;;10.57;6.00;;;13.30;84.60;;;;;;5076780;28;20388;-78
2022/07/02 03:22:07;;;;;;;8.80;5.80;;;13.20;83.50;;;;;;5080474;28;20391;-78
2022/07/02 03:24:33;;;;;;;8.40;5.50;;;13.20;82.90;;;;;;5079369;28;20383;-77
2022/07/02 03:26:58;;;;;;;8.38;5.60;;;13.30;83.10;;;;;;5075910;28;20734;-77
2022/07/02 03:29:25;;;;;;;8.60;5.70;;;13.20;82.50;;;;;;5073660;28;20502;-79
2022/07/02 03:31:51;;;;;;;6.93;4.23;;;13.20;83.40;;;;;;5072899;28;20505;-77
2022/07/02 03:34:17;;;;;;;8.63;5.10;;;13.20;81.50;;;;;;5073557;28;20390;-78
2022/07/02 03:36:42;;;;;;;11.35;5.10;;;13.20;81.70;;;;;;5076316;28;20475;-77
2022/07/02 03:39:08;;;;;;;8.10;5.30;;;13.30;81.10;;;;;;5075429;28;20399;-78
2022/07/02 03:41:33;;;;;;;6.83;5.20;;;13.30;80.50;;;;;;5072039;28;20433;-76
2022/07/02 03:43:59;;;;;;;7.70;4.73;;;13.40;79.80;;;;;;5071314;28;20488;-76
2022/07/02 03:46:25;;;;;;;8.27;5.47;;;13.40;79.00;;;;;;5071816;28;20804;-77
2022/07/02 03:48:50;;;;;;;9.70;5.50;;;13.40;78.70;;;;;;5074631;28;20380;-78
2022/07/02 03:51:16;;;;;;;8.30;5.10;;;13.50;78.40;;;;;;5075948;28;20557;-75
2022/07/02 03:53:41;;;;;;;9.10;4.95;;;13.50;77.00;;;;;;5074236;28;20384;-75
2022/07/02 03:56:08;;;;;;;11.10;5.10;;;13.50;77.70;;;;;;5072897;28;20849;-76
2022/07/02 03:58:34;;;;;;;6.50;4.78;;;13.50;77.60;;;;;;5073865;28;20388;-77
2022/07/02 04:01:00;;;;;;;7.03;4.72;;;13.60;75.80;;;;;;5073220;28;20416;-76
2022/07/02 04:03:25;;;;;;;9.10;5.00;;;13.60;76.30;;;;;;5073935;28;20709;-75
2022/07/02 04:05:51;;;;;;;9.70;4.70;;;13.70;75.40;;;;;;5073224;28;20412;-76
2022/07/02 04:08:17;;;;;;;11.60;4.77;;;13.70;74.90;;;;;;5074316;28;20717;-75
2022/07/02 04:10:43;;;;;;;6.73;3.93;;;13.80;73.70;;;;;;5073509;28;20384;-77
2022/07/02 04:13:10;;;;;;;7.57;4.30;;;13.80;73.10;;;;;;5071886;28;20379;-78
2022/07/02 04:15:36;;;;;;;7.85;4.78;;;13.90;72.10;;;;;;5070531;28;20388;-77
2022/07/02 04:18:02;;;;;;;9.70;4.70;;;13.90;72.40;;;;;;5071693;28;20390;-78
2022/07/02 04:20:27;;;;;;;7.22;3.95;;;14.00;70.70;;;;;;5059902;28;20412;-76
2022/07/02 04:22:53;;;;;;;6.30;4.00;;;14.10;69.70;;;;;;5063097;28;20888;-77
2022/07/02 04:25:19;;;;;;;7.20;3.70;;;14.10;68.60;;;;;;5079691;28;20453;-77
2022/07/02 04:27:44;;;;;;;7.43;4.03;;;14.20;67.30;;;;;;5075942;28;20471;-77
2022/07/02 04:30:10;;;;;;;7.22;4.30;;;14.20;67.90;;;;;;5074773;28;20383;-77
2022/07/02 04:32:36;;;;;;;5.90;4.50;;;14.30;67.30;;;;;;5074673;28;20394;-77
2022/07/02 04:35:02;;;;;;;9.05;4.80;;;14.30;66.40;;;;;;5075721;28;20398;-76
2022/07/02 04:37:27;;;;;;;9.23;4.47;;;14.40;65.20;;;;;;5080365;28;20471;-78
2022/07/02 04:39:53;;;;;;;5.60;3.90;;;14.50;63.40;;;;;;5078131;28;20387;-77
2022/07/02 04:42:19;;;;;;;5.95;3.72;;;14.60;62.60;;;;;;5079007;28;20419;-78
2022/07/02 04:44:44;;;;;;;5.70;3.88;;;14.60;62.10;;;;;;5080483;28;20470;-78
2022/07/02 04:47:10;;;;;;;6.23;3.90;;;14.60;62.00;;;;;;5062152;28;20383;-78
2022/07/02 04:49:35;;;;;;;6.20;4.27;;;14.70;61.00;;;;;;5079529;28;20380;-78
2022/07/02 04:52:01;;;;;;;5.68;4.00;;;14.70;61.10;;;;;;5081378;28;20388;-77
2022/07/02 04:54:27;;;;;;;3.85;3.42;;;14.70;60.80;;;;;;5075644;28;20380;-78
2022/07/02 04:56:53;;;;;;;5.90;3.90;;;14.80;59.00;;;;;;5075007;28;20451;-78
2022/07/02 04:59:18;;;;;;;7.20;4.10;;;14.90;59.30;;;;;;5077035;28;20419;-77
2022/07/02 05:01:44;;;;;;;6.90;3.80;;;15.00;58.30;;;;;;5075232;28;20395;-76
2022/07/02 05:04:10;;;;;;;7.43;3.67;;;15.00;58.10;;;;;;5074063;28;20391;-78
2022/07/02 05:06:36;;;;;;;9.80;3.67;;;15.00;57.20;;;;;;5056086;28;20442;-77
2022/07/02 05:09:03;;;;;;;8.27;3.80;;;15.10;55.50;;;;;;5055466;28;20484;-77
2022/07/02 05:11:29;;;;;;;10.02;4.00;;;15.10;56.80;;;;;;5073495;28;20458;-77
2022/07/02 05:13:54;;;;;;;8.70;4.20;;;15.20;56.00;;;;;;5080286;28;20559;-77
2022/07/02 05:16:20;;;;;;;6.70;3.20;;;15.30;54.90;;;;;;5083107;28;20746;-76
2022/07/02 05:18:45;;;;;;;9.27;3.75;;;15.30;55.20;;;;;;5090318;28;20857;-76
2022/07/02 05:21:11;;;;;;;6.03;3.47;;;15.40;54.50;;;;;;5084576;28;20752;-76
2022/07/02 05:23:37;;;;;;;6.38;3.97;;;15.60;52.80;;;;;;5081887;28;20423;-75
2022/07/02 05:26:03;;;;;;;7.57;4.77;;;15.60;52.40;;;;;;5084653;28;20772;-76
2022/07/02 05:28:28;;;;;;;9.37;4.70;;;15.70;51.80;;;;;;5086098;28;20390;-76
2022/07/02 05:30:54;;;;;;;9.00;4.40;;;15.70;52.40;;;;;;5080795;28;20405;-77
2022/07/02 05:33:20;;;;;;;6.50;4.20;;;15.80;51.60;;;;;;5083681;28;20407;-77
2022/07/02 05:35:46;;;;;;;7.75;4.90;;;15.90;50.90;;;;;;5094305;28;20413;-76
2022/07/02 05:38:12;;;;;;;11.57;5.30;;;15.90;50.30;;;;;;5089780;28;20464;-77
2022/07/02 05:40:38;;;;;;;8.93;4.88;;;16.00;49.70;;;;;;5054865;28;20522;-76
2022/07/02 05:43:04;;;;;;;5.57;4.05;;;16.10;50.10;;;;;;5072810;28;20479;-76
2022/07/02 05:45:29;;;;;;;8.15;3.80;;;16.10;48.80;;;;;;5071535;28;20765;-77
2022/07/02 05:47:55;;;;;;;7.67;4.00;;;16.20;49.30;;;;;;5071348;28;20469;-76
2022/07/02 05:50:20;;;;;;;8.90;4.40;;;16.30;47.60;;;;;;5073279;28;20541;-76
2022/07/02 05:52:46;;;;;;;7.60;4.00;;;16.30;46.90;;;;;;5088774;28;20409;-77
2022/07/02 05:55:12;;;;;;;7.28;4.13;;;16.40;46.60;;;;;;5091945;28;20784;-77
2022/07/02 05:57:38;;;;;;;5.97;3.90;;;16.50;47.00;;;;;;5092247;28;20386;-76
2022/07/02 06:00:10;;;;;;;6.28;3.30;;;16.50;46.80;;;;;;5080573;28;20403;-77
2022/07/02 06:02:36;;;;;;;8.13;3.92;;;16.60;45.40;;;;;;5069942;28;20395;-76
2022/07/02 06:07:38;;;;;;;7.80;3.83;;;16.70;45.50;;;;;;5090588;28;20429;-77
2022/07/02 06:07:51;;;;;;;6.88;3.90;;;16.80;44.30;;;;;;5089929;28;20385;-77
2022/07/02 06:10:19;;;;;;;3.47;3.17;;;16.80;45.00;;;;;;5063130;28;20497;-76
2022/07/02 06:12:50;;;;;;;5.32;3.00;;;16.90;44.60;;;;;;5072812;28;20395;-78
2022/07/02 06:15:16;;;;;;;7.88;4.20;;;16.90;44.80;;;;;;5073602;28;20410;-77
2022/07/02 06:17:42;;;;;;;6.05;4.03;;;17.00;43.90;;;;;;5070526;28;20398;-77
2022/07/02 06:20:08;;;;;;;6.68;3.60;;;17.10;41.70;;;;;;5070708;28;20911;-77
2022/07/02 06:22:34;;;;;;;7.50;3.50;;;17.20;41.30;;;;;;5078683;28;20395;-77
2022/07/02 06:25:00;;;;;;;5.22;3.10;;;17.30;41.70;;;;;;5088166;28;20477;-77
2022/07/02 06:27:26;;;;;;;6.80;3.53;;;17.30;40.80;;;;;;5078654;28;20412;-76
2022/07/02 06:29:51;;;;;;;6.70;3.60;;;17.40;41.40;;;;;;5093992;28;20834;-77
2022/07/02 06:32:17;;;;;;;5.30;3.60;;;17.50;40.40;;;;;;5088018;28;20482;-78
2022/07/02 06:34:44;;;;;;;9.45;3.60;;;17.60;40.30;;;;;;5083427;28;21052;-77
2022/07/02 06:37:10;;;;;;;4.55;3.17;;;17.80;38.30;;;;;;5101700;28;20420;-77
2022/07/02 06:39:36;;;;;;;5.35;3.53;;;17.90;38.10;;;;;;5081734;28;20455;-76
2022/07/02 06:42:22;;;;;;;8.20;3.72;;;17.90;38.50;;;;;;5076649;28;20404;-77
2022/07/02 06:44:56;;;;;;;4.38;3.10;;;18.10;38.60;;;;;;5080629;28;20470;-77
2022/07/02 06:47:22;;;;;;;5.20;3.10;;;18.20;38.10;;;;;;5059519;28;20403;-77
2022/07/02 06:49:49;;;;;;;8.13;3.40;;;18.30;36.40;;;;;;5081916;28;20390;-76
2022/07/02 06:52:16;;;;;;;5.10;3.15;;;18.30;37.00;;;;;;5087761;28;20747;-77
2022/07/02 06:54:42;;;;;;;6.85;3.47;;;18.40;37.90;;;;;;5073717;28;20395;-76
2022/07/02 06:57:09;;;;;;;6.90;3.83;;;18.40;35.40;;;;;;5069708;28;20853;-76
2022/07/02 06:59:34;;;;;;;4.20;3.30;;;18.50;36.20;;;;;;5071024;28;20402;-77
2022/07/02 07:02:01;;;;;;;8.95;3.67;;;18.60;36.30;;;;;;5068049;28;20395;-77
2022/07/02 07:04:29;;;;;;;6.43;3.13;;;18.70;37.00;;;;;;5068008;28;20399;-76
2022/07/02 07:06:56;;;;;;;6.93;3.22;;;18.80;33.10;;;;;;5070842;28;20479;-77
2022/07/02 07:09:22;;;;;;;7.75;2.97;;;18.80;32.70;;;;;;5070320;28;20394;-77
2022/07/02 07:11:48;;;;;;;8.53;3.80;;;18.90;33.00;;;;;;5072500;28;20467;-77
2022/07/02 07:14:14;;;;;;;11.13;3.50;;;19.00;33.50;;;;;;5089860;28;20390;-77
2022/07/02 07:16:39;;;;;;;11.73;3.90;;;19.10;32.40;;;;;;5091788;28;20465;-77
2022/07/02 07:19:05;;;;;;;3.90;2.90;;;19.10;32.60;;;;;;5091476;28;20688;-77
2022/07/02 07:21:39;;;;;;;7.25;3.90;;;19.20;31.20;;;;;;5077991;28;20400;-77
2022/07/02 07:24:05;;;;;;;6.68;2.80;;;19.40;30.60;;;;;;5092826;28;20894;-77
2022/07/02 07:26:31;;;;;;;6.57;3.00;;;19.50;29.30;;;;;;5087957;28;20949;-77
2022/07/02 07:28:57;;;;;;;8.07;2.50;;;19.50;30.10;;;;;;5087277;28;20398;-76
2022/07/02 07:31:23;;;;;;;6.00;2.40;;;19.70;27.90;;;;;;5074117;28;20425;-76
2022/07/02 07:33:53;;;;;;;4.70;2.22;;;19.80;27.70;;;;;;5070818;28;20479;-77
2022/07/02 07:36:20;;;;;;;10.95;3.08;;;19.90;28.50;;;;;;5076486;28;20393;-76
2022/07/02 07:38:46;;;;;;;4.53;2.20;;;19.90;26.20;;;;;;5080675;28;20402;-76
2022/07/02 07:41:13;;;;;;;4.93;2.10;;;20.10;25.50;;;;;;5088735;28;20378;-76
2022/07/02 07:43:38;;;;;;;3.83;2.20;;;20.10;25.20;;;;;;5076886;28;20398;-77
2022/07/02 07:46:04;;;;;;;7.53;2.70;;;20.10;24.90;;;;;;5088776;28;20402;-77
2022/07/02 07:48:29;;;;;;;5.17;1.70;;;20.20;25.50;;;;;;5078194;28;20919;-76
2022/07/02 07:50:55;;;;;;;4.78;2.05;;;20.20;25.00;;;;;;5082472;28;20398;-77
2022/07/02 07:53:21;;;;;;;5.63;2.20;;;20.30;25.10;;;;;;5088862;28;20382;-76
2022/07/02 07:55:48;;;;;;;3.80;1.90;;;20.40;24.40;;;;;;5082105;28;20393;-76
2022/07/02 07:58:17;;;;;;;6.25;2.00;;;20.50;22.80;;;;;;5089024;28;20482;-76
2022/07/02 08:00:42;;;;;;;3.20;2.10;;;20.70;21.90;;;;;;5084494;28;20409;-76
2022/07/02 08:03:08;;;;;;;3.80;1.80;;;20.70;21.00;;;;;;5094808;28;20388;-76
2022/07/02 08:05:34;;;;;;;5.43;2.15;;;20.70;20.50;;;;;;5084945;28;20407;-75
2022/07/02 08:07:59;;;;;;;4.90;1.80;;;20.90;21.40;;;;;;5085239;28;20398;-77
2022/07/02 08:10:26;;;;;;;8.75;1.80;;;20.90;20.00;;;;;;5092322;28;20412;-76
2022/07/02 08:12:52;;;;;;;4.68;2.00;;;20.90;20.40;;;;;;5094870;28;20381;-75
2022/07/02 08:15:17;;;;;;;6.25;2.10;;;20.90;20.00;;;;;;5094197;28;20400;-75
2022/07/02 08:17:43;;;;;;;6.60;2.00;;;21.00;19.80;;;;;;5094985;28;20969;-75
2022/07/02 08:20:10;;;;;;;5.20;2.20;;;21.00;18.70;;;;;;5094939;28;20711;-75
2022/07/02 08:22:36;;;;;;;4.35;2.30;;;21.10;19.30;;;;;;5083238;28;20398;-77
2022/07/02 08:25:06;;;;;;;3.50;1.55;;;21.20;18.20;;;;;;5074583;28;20514;-76
2022/07/02 08:27:31;;;;;;;6.60;1.80;;;21.40;17.20;;;;;;5074590;28;20537;-78
2022/07/02 08:29:58;;;;;;;3.78;1.60;;;21.30;17.40;;;;;;5075090;28;20430;-76
2022/07/02 08:32:24;;;;;;;6.78;1.80;;;21.40;17.20;;;;;;5075893;28;20474;-77
2022/07/02 08:34:53;;;;;;;2.40;1.40;;;21.40;17.50;;;;;;5076554;28;20407;-77
2022/07/02 08:37:21;;;;;;;3.80;1.20;;;21.50;16.30;;;;;;5075740;28;20387;-76
2022/07/02 08:39:47;;;;;;;2.90;1.60;;;21.70;15.30;;;;;;5076015;28;20388;-75
2022/07/02 08:42:23;;;;;;;2.87;1.50;;;21.70;15.90;;;;;;5074548;28;20744;-77
2022/07/02 08:44:50;;;;;;;7.30;1.80;;;21.70;16.00;;;;;;5075239;28;20465;-77
2022/07/02 08:47:16;;;;;;;2.15;1.40;;;21.70;15.30;;;;;;5077411;28;20403;-77
2022/07/02 08:49:43;;;;;;;3.80;1.60;;;21.60;15.80;;;;;;5078819;28;20422;-78
2022/07/02 08:52:09;;;;;;;6.10;2.42;;;21.70;16.90;;;;;;5080710;28;20388;-77
2022/07/02 08:54:35;;;;;;;3.47;1.50;;;22.00;16.00;;;;;;5077170;28;20387;-76
2022/07/02 08:57:03;;;;;;;3.70;1.52;;;22.10;15.20;;;;;;5080654;28;20476;-77
2022/07/02 08:59:32;;;;;;;5.72;1.50;;;22.10;14.80;;;;;;5076446;28;20405;-76
2022/07/02 09:02:00;;;;;;;10.57;1.80;;;22.30;14.80;;;;;;5074625;28;20383;-76
2022/07/02 09:04:26;;;;;;;3.30;1.50;;;22.30;14.60;;;;;;5074552;28;20470;-76
2022/07/02 09:06:57;;;;;;;5.32;1.40;;;22.30;12.90;;;;;;5073781;28;20529;-77
2022/07/02 09:09:27;;;;;;;2.85;1.60;;;22.50;12.30;;;;;;5074988;28;20441;-77
2022/07/02 09:11:54;;;;;;;4.28;1.38;;;22.50;11.30;;;;;;5076678;28;20376;-77
2022/07/02 09:14:21;;;;;;;3.20;1.45;;;22.40;9.80;;;;;;5076313;28;20380;-77
2022/07/02 09:16:47;;;;;;;4.40;1.40;;;22.50;9.40;;;;;;5074426;28;20379;-75
2022/07/02 09:19:13;;;;;;;2.50;1.50;;;22.60;9.00;;;;;;5075419;28;20407;-76
2022/07/02 09:21:43;;;;;;;4.40;1.70;;;22.70;10.10;;;;;;5085535;28;20437;-76
2022/07/02 09:24:09;;;;;;;3.67;1.35;;;22.80;9.20;;;;;;5076956;28;20391;-77
2022/07/02 09:26:34;;;;;;;3.13;1.30;;;23.00;8.70;;;;;;5082270;28;20894;-76
2022/07/02 09:29:01;;;;;;;2.42;1.25;;;23.10;9.70;;;;;;5088270;28;20474;-77
2022/07/02 09:31:28;;;;;;;3.60;1.70;;;23.10;8.40;;;;;;5072864;28;20415;-77
2022/07/02 09:33:54;;;;;;;2.53;1.10;;;23.30;9.20;;;;;;5072295;28;20384;-76
2022/07/02 09:36:21;;;;;;;3.03;1.30;;;23.50;9.30;;;;;;5058871;28;20468;-77
2022/07/02 09:38:49;;;;;;;6.97;1.80;;;23.70;9.20;;;;;;5088380;28;20401;-77
2022/07/02 09:41:23;;;;;;;5.13;1.77;;;24.10;9.30;;;;;;5093247;28;20390;-76
2022/07/02 09:43:59;;;;;;;4.43;1.70;;;24.30;9.00;;;;;;5090937;28;20420;-77
2022/07/02 09:46:26;;;;;;;3.60;1.63;;;24.60;7.30;;;;;;5067075;28;21012;-76
2022/07/02 09:48:52;;;;;;;5.03;1.60;;;24.80;8.20;;;;;;5064476;28;20400;-78
2022/07/02 09:51:19;;;;;;;2.90;1.03;;;25.20;8.10;;;;;;5072743;28;20384;-79
2022/07/02 09:53:52;;;;;;;2.30;1.30;;;25.30;6.70;;;;;;5072260;28;20719;-77
2022/07/02 09:56:20;;;;;;;3.20;1.60;;;25.30;5.90;;;;;;5094800;28;20443;-77
2022/07/02 09:58:46;;;;;;;2.30;1.10;;;25.40;5.90;;;;;;5095002;28;20405;-77
2022/07/02 10:01:12;;;;;;;2.97;1.30;;;25.50;5.70;;;;;;5096868;28;20397;-77
2022/07/02 10:03:54;;;;;;;1.80;1.20;;;25.60;4.30;;;;;;5097664;28;20374;-75
2022/07/02 10:06:20;;;;;;;3.40;1.30;;;25.60;4.00;;;;;;5078645;28;20413;-77
2022/07/02 10:08:48;;;;;;;3.08;1.20;;;25.50;4.70;;;;;;5100794;28;20381;-76
2022/07/02 10:11:14;;;;;;;3.38;1.10;;;25.50;4.50;;;;;;5098233;28;20378;-77
2022/07/02 10:13:42;;;;;;;4.80;1.10;;;25.20;3.40;;;;;;5087966;28;20393;-77
2022/07/02 10:16:17;;;;;;;3.30;1.30;;;24.90;3.50;;;;;;5097641;28;20459;-76
2022/07/02 10:18:43;;;;;;;4.47;1.30;;;25.10;4.00;;;;;;5086674;28;20410;-77
2022/07/02 10:21:14;;;;;;;2.88;1.48;;;25.10;4.80;;;;;;5080295;28;20387;-74
2022/07/02 10:23:43;;;;;;;3.00;1.50;;;24.90;5.70;;;;;;5086802;28;20405;-76
2022/07/02 10:26:10;;;;;;;3.63;1.20;;;24.90;5.90;;;;;;5097962;28;20471;-76
2022/07/02 10:28:36;;;;;;;4.50;1.20;;;24.70;4.40;;;;;;5086935;28;20441;-75
2022/07/02 10:31:02;;;;;;;5.68;1.23;;;24.60;4.70;;;;;;5091422;28;20390;-75
2022/07/02 10:33:43;;;;;;;3.30;1.27;;;24.50;5.10;;;;;;5093913;28;20398;-76
2022/07/02 10:36:12;;;;;;;2.95;1.58;;;24.50;5.20;;;;;;5078353;28;20409;-75
2022/07/02 10:38:39;;;;;;;4.63;1.70;;;24.50;5.30;;;;;;5095809;28;20386;-75
2022/07/02 10:41:05;;;;;;;3.85;1.42;;;24.60;5.90;;;;;;5077462;28;20418;-76
2022/07/02 10:43:36;;;;;;;3.08;1.70;;;24.60;4.90;;;;;;5095197;28;20386;-75
2022/07/02 10:46:02;;;;;;;4.55;1.40;;;24.60;5.30;;;;;;5095089;28;20404;-75
2022/07/02 10:48:28;;;;;;;3.50;1.10;;;24.80;5.10;;;;;;5094956;28;20400;-75
2022/07/02 10:50:58;;;;;;;3.40;1.20;;;24.70;5.00;;;;;;5097381;28;20782;-76
2022/07/02 10:53:27;;;;;;;2.67;1.60;;;24.70;4.90;;;;;;5101009;28;20382;-76
2022/07/02 10:56:02;;;;;;;3.30;1.00;;;24.70;4.80;;;;;;5100259;28;20390;-76
2022/07/02 10:58:30;;;;;;;3.08;1.25;;;24.60;4.20;;;;;;5098928;28;20378;-76
2022/07/02 11:01:07;;;;;;;3.47;1.20;;;24.50;5.00;;;;;;5078988;28;20438;-77
2022/07/02 11:03:34;;;;;;;2.33;1.30;;;24.50;4.70;;;;;;5089734;28;20456;-77
2022/07/02 11:06:06;;;;;;;1.50;1.20;;;24.60;4.80;;;;;;5094953;28;20412;-75
2022/07/02 11:08:46;;;;;;;5.90;1.60;;;24.60;5.50;;;;;;5083580;28;20392;-76
2022/07/02 11:11:13;;;;;;;6.72;1.40;;;24.70;5.10;;;;;;5074576;28;20716;-76
2022/07/02 11:13:54;;;;;;;2.70;1.27;;;24.90;4.90;;;;;;5073519;28;20414;-76
2022/07/02 11:16:29;;;;;;;3.87;1.50;;;25.00;5.00;;;;;;5093030;28;20409;-75
2022/07/02 11:18:56;;;;;;;2.17;1.00;;;25.00;4.60;;;;;;5092793;28;20378;-76
2022/07/02 11:21:23;;;;;;;2.47;1.30;;;25.10;4.00;;;;;;5092944;28;20378;-75
2022/07/02 11:23:50;;;;;;;1.80;1.40;;;25.20;4.50;;;;;;5093882;28;20409;-77
2022/07/02 11:26:18;;;;;;;2.20;1.15;;;25.30;4.30;;;;;;5092991;28;20402;-76
2022/07/02 11:28:44;;;;;;;2.88;1.13;;;25.20;3.90;;;;;;5091731;28;20412;-75
2022/07/02 11:31:10;;;;;;;3.20;1.30;;;25.10;3.90;;;;;;5071803;28;20386;-76
2022/07/02 11:33:41;;;;;;;5.07;1.40;;;25.30;4.30;;;;;;5063317;28;20382;-77
2022/07/02 11:36:06;;;;;;;2.50;1.70;;;25.30;4.80;;;;;;5075528;28;20405;-76
2022/07/02 11:38:39;;;;;;;2.25;1.10;;;25.40;4.80;;;;;;5082581;28;20394;-79
2022/07/02 11:41:29;;;;;;;1.85;1.60;;;25.80;4.50;;;;;;5076328;28;20392;-77
2022/07/02 11:43:57;;;;;;;4.20;1.70;;;25.80;4.60;;;;;;5071988;28;20379;-77
2022/07/02 11:46:25;;;;;;;6.38;1.17;;;25.70;4.70;;;;;;5072420;28;20423;-75
2022/07/02 11:48:51;;;;;;;3.30;1.20;;;25.80;4.30;;;;;;5075403;28;20951;-76
2022/07/02 11:51:21;;;;;;;2.38;1.20;;;26.20;4.50;;;;;;5090504;28;20390;-77
2022/07/02 11:54:03;;;;;;;2.90;1.30;;;26.30;4.10;;;;;;5091960;28;20457;-76
2022/07/02 11:56:31;;;;;;;3.27;1.20;;;26.30;4.40;;;;;;5092402;28;20394;-77
2022/07/02 11:58:57;;;;;;;5.15;1.70;;;26.30;4.60;;;;;;5090711;28;20488;-77
2022/07/02 12:01:27;;;;;;;3.20;1.60;;;26.20;4.30;;;;;;5089895;28;20447;-77
2022/07/02 12:04:03;;;;;;;4.60;1.70;;;26.20;5.30;;;;;;5098220;28;20394;-78
2022/07/02 12:06:41;;;;;;;8.30;3.08;;;26.10;5.50;;;;;;5090292;28;20410;-77
2022/07/02 12:09:09;;;;;;;3.22;1.70;;;26.00;5.30;;;;;;5079137;28;20392;-77
2022/07/02 12:11:36;;;;;;;2.20;1.30;;;26.30;5.90;;;;;;5079627;28;20432;-76
2022/07/02 12:14:04;;;;;;;8.13;1.80;;;26.80;4.20;;;;;;5081540;28;20493;-77
2022/07/02 12:16:30;;;;;;;3.67;1.67;;;27.00;3.90;;;;;;5094211;28;20378;-77
2022/07/02 12:19:02;;;;;;;4.40;1.40;;;27.10;3.80;;;;;;5076196;28;20423;-78
2022/07/02 12:21:47;;;;;;;4.03;1.70;;;26.80;3.20;;;;;;5075537;28;20395;-73
2022/07/02 12:24:22;;;;;;;2.60;1.70;;;26.60;4.20;;;;;;5071889;28;20378;-74
2022/07/02 12:26:57;;;;;;;2.60;1.30;;;26.90;4.40;;;;;;5072031;28;20541;-75
2022/07/02 12:32:11;;;;;;;4.15;1.40;;;27.00;3.60;;;;;;5083689;28;20459;-80
2022/07/02 12:34:44;;;;;;;1.95;1.50;;;26.70;4.70;;;;;;5103367;28;20499;-81
2022/07/02 12:37:31;;;;;;;3.33;1.52;;;26.70;4.90;;;;;;5108841;28;20412;-79
2022/07/02 12:40:01;;;;;;;3.33;1.20;;;26.90;3.60;;;;;;5108653;28;20437;-77
2022/07/02 12:42:28;;;;;;;2.70;1.40;;;27.20;4.40;;;;;;5114393;28;20386;-78
2022/07/02 12:45:04;;;;;;;3.65;2.00;;;27.50;3.30;;;;;;5084945;28;20390;-78
2022/07/02 12:47:34;;;;;;;4.45;1.60;;;27.70;3.20;;;;;;5100915;28;20417;-78
2022/07/02 12:50:03;;;;;;;4.90;1.30;;;27.80;3.60;;;;;;5097137;28;20629;-78
2022/07/02 12:52:31;;;;;;;2.78;1.30;;;28.00;3.30;;;;;;5098881;28;21013;-77
2022/07/02 12:54:57;;;;;;;2.40;1.30;;;27.70;2.70;;;;;;5095209;28;20425;-76